Time;durP1;ratioP1;P1;durP2;ratioP2;P2;SDS_P1;SDS_P2;PMS_P1;PMS_P2;Temp;Humidity;BMP_temperature;BMP_pressure;BME280_temperature;BME280_humidity;BME280_pressure;Samples;Min_cycle;Max_cycle;Signal;HPM_P1;HPM_P2
2023/02/03 00:01:17;;;;;;;16.40;4.20;;;8.40;99.90;;;;;;5033005;28;20046;-88
2023/02/03 00:03:43;;;;;;;15.45;3.97;;;8.40;99.90;;;;;;5033028;28;20022;-88
2023/02/03 00:06:09;;;;;;;14.02;3.65;;;8.40;99.90;;;;;;5034509;28;20029;-89
2023/02/03 00:08:36;;;;;;;12.00;3.20;;;8.40;99.90;;;;;;5033209;28;20018;-87
2023/02/03 00:11:02;;;;;;;14.00;3.33;;;8.40;99.90;;;;;;5032665;28;20029;-88
2023/02/03 00:13:27;;;;;;;14.93;2.92;;;8.40;99.90;;;;;;5032890;28;20056;-89
2023/02/03 00:15:53;;;;;;;15.68;3.85;;;8.50;99.90;;;;;;5032261;28;20028;-90
2023/02/03 00:18:19;;;;;;;9.23;2.88;;;8.50;99.90;;;;;;5033298;28;20025;-89
2023/02/03 00:20:47;;;;;;;10.70;2.95;;;8.50;99.90;;;;;;5033543;28;20533;-88
2023/02/03 00:23:13;;;;;;;10.82;3.15;;;8.50;99.90;;;;;;5032648;28;20017;-89
2023/02/03 00:25:39;;;;;;;13.80;3.22;;;8.50;99.90;;;;;;5046367;28;20027;-88
2023/02/03 00:28:05;;;;;;;15.82;2.95;;;8.50;99.90;;;;;;5032191;28;20025;-89
2023/02/03 00:30:34;;;;;;;15.07;3.10;;;8.50;99.90;;;;;;5032045;28;20029;-87
2023/02/03 00:33:00;;;;;;;16.60;3.30;;;8.50;99.90;;;;;;5032843;28;20108;-86
2023/02/03 00:35:26;;;;;;;11.73;2.80;;;8.60;99.90;;;;;;5016051;28;20033;-87
2023/02/03 00:37:53;;;;;;;12.70;2.75;;;8.50;99.90;;;;;;5032532;28;20025;-90
2023/02/03 00:40:20;;;;;;;8.23;3.00;;;8.60;99.90;;;;;;5033988;28;20049;-88
2023/02/03 00:42:48;;;;;;;11.40;3.20;;;8.60;99.90;;;;;;5032799;28;20124;-90
2023/02/03 00:45:13;;;;;;;9.90;3.10;;;8.60;99.90;;;;;;5032828;28;20052;-90
2023/02/03 00:47:39;;;;;;;10.80;2.67;;;8.60;99.90;;;;;;5032638;28;20448;-91
2023/02/03 00:50:08;;;;;;;14.27;4.20;;;8.60;99.90;;;;;;5033529;28;20009;-90
2023/02/03 00:52:34;;;;;;;14.00;3.53;;;8.60;99.90;;;;;;5034250;28;20108;-91
2023/02/03 00:54:59;;;;;;;12.70;3.20;;;8.60;99.90;;;;;;5033651;28;20085;-90
2023/02/03 00:57:25;;;;;;;12.38;3.05;;;8.60;99.90;;;;;;5034721;28;20612;-91
2023/02/03 00:59:50;;;;;;;12.68;3.28;;;8.60;99.90;;;;;;5032154;28;20047;-90
2023/02/03 01:02:16;;;;;;;17.88;3.95;;;8.60;99.90;;;;;;5032036;28;20465;-92
2023/02/03 01:04:42;;;;;;;13.63;3.08;;;8.60;99.90;;;;;;5031710;28;20044;-88
2023/02/03 01:07:08;;;;;;;12.45;3.22;;;8.60;99.90;;;;;;5031881;28;20502;-88
2023/02/03 01:09:36;;;;;;;11.15;3.42;;;8.70;99.90;;;;;;5037180;28;20062;-86
2023/02/03 01:12:02;;;;;;;12.85;3.30;;;8.70;99.90;;;;;;5032233;28;20025;-88
2023/02/03 01:14:28;;;;;;;8.93;3.22;;;8.60;99.90;;;;;;5066465;28;20081;-88
2023/02/03 01:16:54;;;;;;;10.75;3.13;;;8.60;99.90;;;;;;5033652;28;20057;-86
2023/02/03 01:19:19;;;;;;;10.73;2.78;;;8.60;99.90;;;;;;5033927;28;21363;-87
2023/02/03 01:21:45;;;;;;;13.80;3.35;;;8.60;99.90;;;;;;5032149;28;20037;-89
2023/02/03 01:24:11;;;;;;;11.85;3.47;;;8.60;99.90;;;;;;5031798;28;20261;-86
2023/02/03 01:26:36;;;;;;;14.68;3.50;;;8.70;99.90;;;;;;5065259;28;20056;-90
2023/02/03 01:29:05;;;;;;;14.02;3.63;;;8.70;99.90;;;;;;5050209;28;20014;-87
2023/02/03 01:31:35;;;;;;;9.23;2.67;;;8.70;99.90;;;;;;5053325;28;20040;-89
2023/02/03 01:34:02;;;;;;;14.50;3.60;;;8.70;99.90;;;;;;5049627;28;20032;-87
2023/02/03 01:36:30;;;;;;;11.02;3.17;;;8.70;99.90;;;;;;5042389;28;20044;-88
2023/02/03 01:38:56;;;;;;;12.57;3.17;;;8.70;99.90;;;;;;5042963;28;20063;-86
2023/02/03 01:41:27;;;;;;;8.75;2.92;;;8.70;99.90;;;;;;5072641;28;20022;-89
2023/02/03 01:43:55;;;;;;;9.82;2.80;;;8.70;99.90;;;;;;5036612;28;20017;-89
2023/02/03 01:46:34;;;;;;;11.02;2.60;;;8.70;99.90;;;;;;5036392;28;20037;-86
2023/02/03 01:49:06;;;;;;;10.05;2.97;;;8.70;99.90;;;;;;5067660;28;20504;-89
2023/02/03 01:51:32;;;;;;;9.75;2.72;;;8.70;99.90;;;;;;5033003;28;20029;-91
2023/02/03 01:53:58;;;;;;;11.30;3.13;;;8.70;99.90;;;;;;5032084;28;20022;-88
2023/02/03 01:56:33;;;;;;;10.23;3.10;;;8.70;99.90;;;;;;5031194;28;20021;-90
2023/02/03 01:59:06;;;;;;;12.32;2.92;;;8.70;99.90;;;;;;5032072;28;20033;-90
2023/02/03 02:01:32;;;;;;;13.37;3.23;;;8.60;99.90;;;;;;5037068;28;20048;-91
2023/02/03 02:04:01;;;;;;;12.30;2.67;;;8.70;99.90;;;;;;5031712;28;20304;-88
2023/02/03 02:06:27;;;;;;;9.90;2.75;;;8.70;99.90;;;;;;5031360;28;20044;-89
2023/02/03 02:08:54;;;;;;;9.95;2.47;;;8.70;99.90;;;;;;5031458;28;20025;-90
2023/02/03 02:11:20;;;;;;;11.85;2.78;;;8.70;99.90;;;;;;5031422;28;20044;-90
2023/02/03 02:13:47;;;;;;;13.82;2.70;;;8.70;99.90;;;;;;5033317;28;20026;-90
2023/02/03 02:16:55;;;;;;;7.72;2.20;;;8.70;99.90;;;;;;5034412;28;20029;-90
2023/02/03 02:19:52;;;;;;;15.80;3.05;;;8.70;99.90;;;;;;5032238;28;20022;-88
2023/02/03 02:22:17;;;;;;;12.13;2.75;;;8.70;99.90;;;;;;5029940;28;20048;-88
2023/02/03 02:25:22;;;;;;;15.88;3.42;;;8.70;99.90;;;;;;5030297;28;20383;-89
2023/02/03 02:28:22;;;;;;;14.13;4.25;;;8.70;99.90;;;;;;5018166;28;20017;-89
2023/02/03 02:31:29;;;;;;;14.98;3.67;;;8.70;99.90;;;;;;5026727;28;20111;-89
2023/02/03 02:34:13;;;;;;;12.82;3.03;;;8.70;99.90;;;;;;4999482;28;20033;-88
2023/02/03 02:36:58;;;;;;;14.57;3.38;;;8.70;99.90;;;;;;5035612;28;20475;-89
2023/02/03 02:39:38;;;;;;;13.50;2.88;;;8.60;99.90;;;;;;5032898;28;20029;-90
2023/02/03 02:42:09;;;;;;;8.23;2.35;;;8.60;99.90;;;;;;5035154;28;20061;-89
2023/02/03 02:44:40;;;;;;;10.00;2.40;;;8.60;99.90;;;;;;5036750;28;20506;-89
2023/02/03 02:47:15;;;;;;;13.88;3.28;;;8.60;99.90;;;;;;5035417;28;20525;-87
2023/02/03 02:49:52;;;;;;;7.60;2.60;;;8.60;99.90;;;;;;5035151;28;20048;-89
2023/02/03 02:52:20;;;;;;;7.28;2.42;;;8.60;99.90;;;;;;5034474;28;20022;-88
2023/02/03 02:54:53;;;;;;;9.77;2.30;;;8.70;99.90;;;;;;5034881;28;20018;-89
2023/02/03 02:57:20;;;;;;;;;;;8.70;99.90;;;;;;5035296;28;20087;-90
2023/02/03 02:59:46;;;;;;;11.82;2.25;;;8.70;99.90;;;;;;5035061;28;19912;-88
2023/02/03 03:02:12;;;;;;;7.72;2.60;;;8.70;99.90;;;;;;5036315;28;20501;-88
2023/02/03 03:04:39;;;;;;;10.15;2.45;;;8.70;99.90;;;;;;5035513;28;20017;-88
2023/02/03 03:07:13;;;;;;;11.18;2.70;;;8.70;99.90;;;;;;5035171;28;20725;-90
2023/02/03 03:09:51;;;;;;;10.40;3.03;;;8.80;99.90;;;;;;5034743;28;20044;-89
2023/02/03 03:12:23;;;;;;;10.40;2.70;;;8.80;99.90;;;;;;5034495;28;20033;-90
2023/02/03 03:14:56;;;;;;;10.45;2.25;;;8.80;99.90;;;;;;5035489;28;20127;-88
2023/02/03 03:17:28;;;;;;;10.00;2.50;;;8.80;99.90;;;;;;5034384;28;20021;-88
2023/02/03 03:19:56;;;;;;;9.23;2.10;;;8.90;99.90;;;;;;5034361;28;20013;-88
2023/02/03 03:22:33;;;;;;;12.73;2.60;;;8.90;99.90;;;;;;5035494;28;20030;-90
2023/02/03 03:25:22;;;;;;;13.95;2.55;;;8.90;99.90;;;;;;5033921;28;20030;-89
2023/02/03 03:28:10;;;;;;;10.43;2.50;;;8.90;99.90;;;;;;5030133;28;20104;-89
2023/02/03 03:30:38;;;;;;;6.22;1.88;;;8.90;99.90;;;;;;5034085;28;20041;-91
2023/02/03 03:33:05;;;;;;;8.23;1.95;;;8.90;99.90;;;;;;5034685;28;20033;-90
2023/02/03 03:35:57;;;;;;;11.15;2.20;;;8.80;99.90;;;;;;5036198;28;20523;-88
2023/02/03 03:38:35;;;;;;;11.55;2.42;;;8.80;99.90;;;;;;5034669;28;20022;-89
2023/02/03 03:41:13;;;;;;;11.35;2.10;;;8.80;99.90;;;;;;5030099;28;20033;-87
2023/02/03 03:43:43;;;;;;;9.15;2.17;;;8.80;99.90;;;;;;5034537;28;20116;-89
2023/02/03 03:46:24;;;;;;;11.60;2.20;;;8.80;99.90;;;;;;5037689;28;20108;-90
2023/02/03 03:49:00;;;;;;;11.52;2.30;;;8.80;99.90;;;;;;5035493;28;20060;-92
2023/02/03 03:51:45;;;;;;;8.93;2.58;;;8.80;99.90;;;;;;5033917;28;20506;-89
2023/02/03 03:54:16;;;;;;;9.20;2.25;;;8.80;99.90;;;;;;5035896;28;20030;-87
2023/02/03 03:57:13;;;;;;;8.02;1.98;;;8.80;99.90;;;;;;5037614;28;20021;-89
2023/02/03 03:59:42;;;;;;;10.18;3.25;;;8.80;99.90;;;;;;5034910;28;20057;-87
2023/02/03 04:02:08;;;;;;;10.80;2.30;;;8.80;99.90;;;;;;5034159;28;20078;-88
2023/02/03 04:04:37;;;;;;;11.75;2.67;;;8.80;99.90;;;;;;5033461;28;20620;-89
2023/02/03 04:07:03;;;;;;;12.68;3.00;;;8.90;99.90;;;;;;5033381;28;20193;-89
2023/02/03 04:09:29;;;;;;;11.68;2.40;;;8.90;99.90;;;;;;5033232;28;20057;-90
2023/02/03 04:12:00;;;;;;;8.82;2.53;;;8.90;99.90;;;;;;5033770;28;20024;-89
2023/02/03 04:14:36;;;;;;;10.70;2.78;;;9.00;99.90;;;;;;5034738;28;20026;-90
2023/02/03 04:17:02;;;;;;;8.95;2.65;;;8.90;99.90;;;;;;5033699;28;20067;-88
2023/02/03 04:19:28;;;;;;;9.13;2.22;;;9.00;99.90;;;;;;5035466;28;20472;-89
2023/02/03 04:21:54;;;;;;;13.52;3.25;;;9.00;99.90;;;;;;5035234;28;20038;-89
2023/02/03 04:24:19;;;;;;;10.05;2.65;;;9.00;99.90;;;;;;5034366;28;20034;-90
2023/02/03 04:26:45;;;;;;;9.30;2.33;;;9.00;99.90;;;;;;5040950;28;20036;-89
2023/02/03 04:29:11;;;;;;;12.20;2.42;;;9.00;99.90;;;;;;5024582;28;20045;-89
2023/02/03 04:31:37;;;;;;;9.68;2.28;;;9.00;99.90;;;;;;5037700;28;20033;-89
2023/02/03 04:34:03;;;;;;;8.23;1.90;;;9.10;99.90;;;;;;5021058;28;20140;-89
2023/02/03 04:36:29;;;;;;;9.77;2.13;;;9.10;99.90;;;;;;5038366;28;20071;-86
2023/02/03 04:38:57;;;;;;;12.38;2.20;;;9.00;99.90;;;;;;5034663;28;20029;-89
2023/02/03 04:41:23;;;;;;;9.18;2.42;;;9.00;99.90;;;;;;5033767;28;20029;-89
2023/02/03 04:43:54;;;;;;;9.52;2.10;;;9.10;99.90;;;;;;5034756;28;20083;-89
2023/02/03 04:46:20;;;;;;;7.47;1.65;;;9.10;99.90;;;;;;5035353;28;20068;-89
2023/02/03 04:48:45;;;;;;;11.07;2.15;;;9.10;99.90;;;;;;5048797;28;20033;-89
2023/02/03 04:51:11;;;;;;;8.95;1.88;;;9.10;99.90;;;;;;5035933;28;20061;-89
2023/02/03 04:53:36;;;;;;;12.10;2.08;;;9.10;99.90;;;;;;5037366;28;20021;-92
2023/02/03 04:56:05;;;;;;;9.05;2.05;;;9.20;99.90;;;;;;5038408;28;20049;-91
2023/02/03 04:58:35;;;;;;;8.45;1.70;;;9.10;99.90;;;;;;5035158;28;20021;-91
2023/02/03 05:01:06;;;;;;;9.10;2.00;;;9.10;99.90;;;;;;5054245;23;20045;-89
2023/02/03 05:03:32;;;;;;;9.90;1.88;;;9.20;99.90;;;;;;5033492;28;20041;-90
2023/02/03 05:05:58;;;;;;;9.70;1.85;;;9.20;99.90;;;;;;5036163;28;20029;-91
2023/02/03 05:08:24;;;;;;;12.43;2.28;;;9.20;99.90;;;;;;5035807;28;20067;-91
2023/02/03 05:11:09;;;;;;;9.27;2.53;;;9.10;99.90;;;;;;5038694;28;20021;-89
2023/02/03 05:13:45;;;;;;;10.73;2.58;;;9.20;99.90;;;;;;5059226;23;20453;-90
2023/02/03 05:16:38;;;;;;;6.90;1.58;;;9.20;99.90;;;;;;5053848;28;20098;-92
2023/02/03 05:19:11;;;;;;;9.95;2.60;;;9.20;99.90;;;;;;5051844;28;20024;-91
2023/02/03 05:21:41;;;;;;;10.23;1.88;;;9.20;99.90;;;;;;5054340;28;20029;-90
2023/02/03 05:24:13;;;;;;;8.82;1.90;;;9.20;99.90;;;;;;5054144;28;20067;-90
2023/02/03 05:26:46;;;;;;;11.45;1.95;;;9.20;99.90;;;;;;5054135;28;20429;-90
2023/02/03 05:29:35;;;;;;;13.00;1.75;;;9.20;99.90;;;;;;5052963;28;20025;-89
2023/02/03 05:32:07;;;;;;;14.80;2.72;;;9.20;99.90;;;;;;5052414;28;20480;-89
2023/02/03 05:34:54;;;;;;;11.23;2.17;;;9.20;99.90;;;;;;5052852;28;20211;-89
2023/02/03 05:37:44;;;;;;;12.82;2.20;;;9.20;99.90;;;;;;5052869;28;20040;-88
2023/02/03 05:43:30;;;;;;;9.70;2.08;;;9.20;99.90;;;;;;5054109;28;20056;-90
2023/02/03 05:46:32;;;;;;;10.15;2.03;;;9.20;99.90;;;;;;5052167;28;20064;-88
2023/02/03 05:49:07;;;;;;;7.97;1.60;;;9.20;99.90;;;;;;5049886;28;20037;-89
2023/02/03 05:51:45;;;;;;;7.50;1.75;;;9.20;99.90;;;;;;5052161;28;20065;-90
2023/02/03 05:54:35;;;;;;;7.95;2.05;;;9.20;99.90;;;;;;5052739;28;20041;-88
2023/02/03 05:57:12;;;;;;;13.60;2.17;;;9.20;99.90;;;;;;5051056;28;20127;-89
2023/02/03 06:00:01;;;;;;;10.98;1.73;;;9.20;99.90;;;;;;5052888;28;20037;-88
2023/02/03 06:03:02;;;;;;;9.10;2.00;;;9.20;99.90;;;;;;5052187;28;20032;-88
2023/02/03 06:05:58;;;;;;;11.15;2.13;;;9.10;99.90;;;;;;5052516;28;20021;-88
2023/02/03 06:08:45;;;;;;;15.05;2.63;;;9.10;99.90;;;;;;5052060;28;20041;-87
2023/02/03 06:11:23;;;;;;;12.98;2.42;;;9.10;99.90;;;;;;5051975;28;20029;-87
2023/02/03 06:14:12;;;;;;;13.77;2.67;;;9.10;99.90;;;;;;5052037;28;20049;-87
2023/02/03 06:17:13;;;;;;;8.05;1.85;;;9.20;99.90;;;;;;5056216;28;20477;-88
2023/02/03 06:19:43;;;;;;;9.73;1.85;;;9.10;99.90;;;;;;5057861;28;20029;-89
2023/02/03 06:22:12;;;;;;;10.73;2.08;;;9.10;99.90;;;;;;5039750;28;20124;-87
2023/02/03 06:24:56;;;;;;;8.77;2.53;;;9.10;99.90;;;;;;5039352;28;20132;-88
2023/02/03 06:27:26;;;;;;;9.60;2.20;;;9.10;99.90;;;;;;5055421;28;20432;-88
2023/02/03 06:29:58;;;;;;;10.68;2.33;;;9.10;99.90;;;;;;5039825;28;20041;-87
2023/02/03 06:32:25;;;;;;;8.90;1.95;;;9.10;99.90;;;;;;5055530;28;20115;-89
2023/02/03 06:35:02;;;;;;;8.40;2.03;;;9.10;99.90;;;;;;5057314;28;20064;-90
2023/02/03 06:37:41;;;;;;;10.93;2.17;;;9.10;99.90;;;;;;5056061;28;20037;-91
2023/02/03 06:40:28;;;;;;;9.95;2.15;;;9.10;99.90;;;;;;5056575;28;20044;-91
2023/02/03 06:43:00;;;;;;;9.23;2.33;;;9.10;99.90;;;;;;5035486;28;20053;-88
2023/02/03 06:45:37;;;;;;;11.15;2.83;;;9.10;99.90;;;;;;5038899;28;20033;-88
2023/02/03 06:48:18;;;;;;;14.07;2.65;;;9.00;99.90;;;;;;5038963;28;20037;-90
2023/02/03 06:50:59;;;;;;;9.60;2.10;;;9.10;99.90;;;;;;5055744;28;20017;-88
2023/02/03 06:53:52;;;;;;;13.38;3.00;;;9.10;99.90;;;;;;5055310;28;20116;-88
2023/02/03 06:56:43;;;;;;;10.45;2.45;;;9.10;99.90;;;;;;5055286;28;20025;-88
2023/02/03 06:59:22;;;;;;;9.88;2.20;;;9.10;99.90;;;;;;5055162;28;20351;-88
2023/02/03 07:02:10;;;;;;;;;;;;;;;;;;;;;
2023/02/03 07:05:17;;;;;;;10.65;2.30;;;9.00;99.90;;;;;;5055656;28;20029;-89
2023/02/03 07:08:06;;;;;;;9.77;2.22;;;9.00;99.90;;;;;;4997374;28;20161;-88
2023/02/03 07:11:22;;;;;;;11.07;2.20;;;9.00;99.90;;;;;;4997403;28;20034;-88
2023/02/03 07:13:54;;;;;;;9.15;2.85;;;9.00;99.90;;;;;;5002900;28;20046;-87
2023/02/03 07:17:06;;;;;;;11.82;3.22;;;9.00;99.90;;;;;;4980859;28;20120;-88
2023/02/03 07:19:49;;;;;;;11.50;2.92;;;9.00;99.90;;;;;;4955573;29;20027;-88
2023/02/03 07:22:59;;;;;;;9.65;2.00;;;9.00;99.90;;;;;;5002763;28;20097;-88
2023/02/03 07:26:01;;;;;;;14.60;2.92;;;9.00;99.90;;;;;;5013988;28;20037;-89
2023/02/03 07:28:53;;;;;;;;;;;;;;;;;;;;;
2023/02/03 07:31:53;;;;;;;9.73;2.28;;;9.00;99.90;;;;;;5052550;28;20045;-89
2023/02/03 07:34:44;;;;;;;11.32;2.50;;;9.00;99.90;;;;;;5054224;28;20108;-89
2023/02/03 07:43:50;;;;;;;12.95;2.60;;;9.00;99.90;;;;;;4916786;29;20071;-90
2023/02/03 07:47:01;;;;;;;11.35;3.00;;;9.00;99.90;;;;;;4899772;29;20501;-88
2023/02/03 07:49:34;;;;;;;14.50;2.65;;;9.00;99.90;;;;;;4917075;29;20036;-89
2023/02/03 07:52:13;;;;;;;14.40;2.58;;;9.00;99.90;;;;;;4916287;29;20060;-89
2023/02/03 07:54:54;;;;;;;8.98;2.05;;;9.00;99.90;;;;;;4897752;29;20084;-87
2023/02/03 08:01:13;;;;;;;9.40;2.00;;;9.00;99.90;;;;;;4916629;29;20040;-88
2023/02/03 08:04:04;;;;;;;11.18;2.80;;;9.00;99.90;;;;;;4962077;28;20403;-88
2023/02/03 08:07:20;;;;;;;9.95;2.20;;;9.00;99.90;;;;;;5003801;28;20067;-88
2023/02/03 08:10:38;;;;;;;;;;;;;;;;;;;;;
2023/02/03 08:13:30;;;;;;;11.20;2.55;;;9.00;99.90;;;;;;4991045;28;20045;-88
2023/02/03 08:16:14;;;;;;;13.77;2.90;;;9.00;99.90;;;;;;5024868;28;20045;-88
2023/02/03 08:18:53;;;;;;;10.52;2.47;;;9.10;99.90;;;;;;5033332;28;20037;-88
2023/02/03 08:21:43;;;;;;;10.93;2.20;;;9.10;99.90;;;;;;5033501;28;20148;-88
2023/02/03 08:24:34;;;;;;;12.02;2.35;;;9.10;99.90;;;;;;5033192;28;20045;-87
2023/02/03 08:27:27;;;;;;;9.43;2.40;;;9.10;99.90;;;;;;5034083;28;20084;-88
2023/02/03 08:29:57;;;;;;;9.43;2.83;;;9.10;99.90;;;;;;5032926;28;20025;-87
2023/02/03 08:32:38;;;;;;;8.70;2.20;;;9.10;99.90;;;;;;5000637;28;20033;-89
2023/02/03 08:35:44;;;;;;;;;;;;;;;;;;;;;
2023/02/03 08:38:41;;;;;;;9.70;2.40;;;9.10;99.90;;;;;;5034466;28;20496;-88
2023/02/03 08:41:24;;;;;;;8.10;2.30;;;9.20;99.90;;;;;;5030239;28;20089;-87
2023/02/03 08:44:02;;;;;;;10.13;2.40;;;9.20;99.90;;;;;;5057030;28;20026;-86
2023/02/03 08:46:42;;;;;;;9.05;2.47;;;9.20;99.90;;;;;;5050071;28;20045;-88
2023/02/03 08:49:12;;;;;;;8.32;2.08;;;9.20;99.90;;;;;;5033281;28;20037;-88
2023/02/03 08:51:56;;;;;;;9.45;2.05;;;9.20;99.90;;;;;;5016412;28;20036;-89
2023/02/03 08:54:40;;;;;;;9.75;2.28;;;9.30;99.90;;;;;;5030026;28;20140;-88
2023/02/03 08:57:46;;;;;;;8.43;2.03;;;9.30;99.90;;;;;;5032030;28;20056;-90
2023/02/03 09:00:41;;;;;;;10.02;2.20;;;9.30;99.90;;;;;;5031926;28;20044;-88
2023/02/03 09:03:37;;;;;;;8.35;2.03;;;9.30;99.90;;;;;;5015986;28;20049;-89
2023/02/03 09:06:21;;;;;;;10.63;2.25;;;9.40;99.90;;;;;;5038232;28;20037;-89
2023/02/03 09:09:42;;;;;;;10.35;2.70;;;9.40;99.90;;;;;;5043218;28;20045;-88
2023/02/03 09:12:16;;;;;;;8.00;2.30;;;9.50;99.90;;;;;;5040204;28;20509;-89
2023/02/03 09:14:58;;;;;;;;;;;;;;;;;;;;;
2023/02/03 09:17:31;;;;;;;11.30;2.63;;;9.50;99.90;;;;;;5043878;28;20028;-88
2023/02/03 09:20:25;;;;;;;6.40;2.00;;;9.50;99.90;;;;;;5023151;28;20045;-88
2023/02/03 09:23:02;;;;;;;9.20;2.47;;;9.60;99.90;;;;;;5049985;28;20043;-88
2023/02/03 09:26:08;;;;;;;6.93;2.20;;;9.60;99.90;;;;;;5051889;28;20043;-89
2023/02/03 09:28:51;;;;;;;11.48;2.50;;;9.60;99.90;;;;;;5051514;28;20029;-89
2023/02/03 09:32:09;;;;;;;;;;;;;;;;;;;;;
2023/02/03 09:35:20;;;;;;;10.10;2.13;;;9.70;99.90;;;;;;5050945;28;20029;-87
2023/02/03 09:38:04;;;;;;;9.68;2.42;;;9.70;99.90;;;;;;5013250;28;20064;-88
2023/02/03 09:41:46;;;;;;;7.30;2.25;;;9.70;99.90;;;;;;5038402;28;20036;-88
2023/02/03 09:45:09;;;;;;;10.73;2.00;;;9.70;99.90;;;;;;5009646;28;20034;-87
2023/02/03 09:48:32;;;;;;;9.35;2.25;;;9.80;99.90;;;;;;4951120;28;20138;-88
2023/02/03 10:01:21;;;;;;;7.55;2.13;;;9.80;99.90;;;;;;4863813;29;20410;-88
2023/02/03 10:04:26;;;;;;;;;;;9.80;99.90;;;;;;4846139;29;20041;-89
2023/02/03 10:07:48;;;;;;;6.68;2.00;;;9.80;99.90;;;;;;4860903;29;20416;-89
2023/02/03 10:11:17;;;;;;;8.10;2.00;;;9.80;99.90;;;;;;4901957;29;20077;-87
2023/02/03 10:14:18;;;;;;;11.93;2.80;;;9.80;99.90;;;;;;4906128;29;20048;-88
2023/02/03 10:17:32;;;;;;;;;;;;;;;;;;;;;
2023/02/03 10:21:03;;;;;;;11.15;2.08;;;9.90;99.90;;;;;;4900109;29;20059;-88
2023/02/03 10:23:50;;;;;;;;;;;;;;;;;;;;;
2023/02/03 10:26:24;;;;;;;6.65;2.28;;;10.00;99.90;;;;;;5012871;28;20440;-88
2023/02/03 10:29:31;;;;;;;6.03;1.75;;;10.00;99.90;;;;;;5036382;28;20043;-88
2023/02/03 10:32:20;;;;;;;7.45;1.95;;;10.00;99.90;;;;;;5035360;28;20052;-88
2023/02/03 10:35:07;;;;;;;7.63;1.63;;;10.00;99.90;;;;;;5036337;28;20051;-87
2023/02/03 10:38:00;;;;;;;9.27;2.67;;;10.10;99.90;;;;;;5024250;28;20150;-89
2023/02/03 10:40:52;;;;;;;8.88;3.03;;;10.10;99.90;;;;;;5035171;28;20501;-88
2023/02/03 10:46:45;;;;;;;10.07;2.10;;;10.10;99.90;;;;;;5051284;28;20044;-88
2023/02/03 10:53:22;;;;;;;8.60;2.47;;;10.10;99.90;;;;;;4972339;28;20038;-87
2023/02/03 10:56:35;;;;;;;8.00;1.98;;;10.10;99.90;;;;;;4973269;28;20034;-88
2023/02/03 10:59:47;;;;;;;10.43;2.00;;;10.10;99.90;;;;;;4975489;28;20091;-88
2023/02/03 11:03:21;;;;;;;;;;;;;;;;;;;;;
2023/02/03 11:06:16;;;;;;;6.95;1.77;;;10.20;99.90;;;;;;4992153;28;20034;-88
2023/02/03 11:09:21;;;;;;;7.68;1.77;;;10.20;99.90;;;;;;4977943;28;20133;-88
2023/02/03 11:12:05;;;;;;;11.02;1.95;;;10.20;99.90;;;;;;4978075;28;20043;-87
2023/02/03 11:14:49;;;;;;;7.22;2.10;;;10.20;99.90;;;;;;4977924;28;20085;-87
2023/02/03 11:17:41;;;;;;;;;;;10.30;99.90;;;;;;4978724;28;20051;-88
2023/02/03 11:20:42;;;;;;;7.05;1.90;;;10.30;99.90;;;;;;4994830;28;20358;-89
2023/02/03 11:27:32;;;;;;;7.78;1.80;;;10.40;99.90;;;;;;4994274;28;20038;-88
2023/02/03 11:30:49;;;;;;;4.15;1.48;;;10.30;99.90;;;;;;4993876;28;20069;-88
2023/02/03 11:33:25;;;;;;;7.20;2.00;;;10.40;99.90;;;;;;4993733;28;20042;-87
2023/02/03 11:36:32;;;;;;;;;;;;;;;;;;;;;
2023/02/03 11:39:41;;;;;;;9.57;2.25;;;10.40;99.90;;;;;;4993656;28;20038;-88
2023/02/03 11:42:22;;;;;;;6.03;1.90;;;10.40;99.90;;;;;;4986241;28;20119;-89
2023/02/03 11:45:44;;;;;;;8.52;2.35;;;10.50;99.90;;;;;;5033019;28;20393;-87
2023/02/03 11:49:13;;;;;;;9.43;2.38;;;10.60;99.90;;;;;;5032609;28;20045;-88
2023/02/03 11:52:38;;;;;;;;;;;;;;;;;;;;;
2023/02/03 11:55:58;;;;;;;5.53;1.85;;;10.70;99.90;;;;;;4954666;29;20050;-87
2023/02/03 12:06:18;;;;;;;7.63;2.20;;;10.80;99.90;;;;;;4953661;29;20039;-89
2023/02/03 12:13:13;;;;;;;7.85;2.05;;;10.90;99.90;;;;;;4952582;28;20031;-88
2023/02/03 12:20:11;;;;;;;8.05;2.38;;;10.90;99.90;;;;;;4934499;29;20603;-87
2023/02/03 12:30:00;;;;;;;7.40;1.90;;;10.80;99.90;;;;;;4927694;29;19910;-87
2023/02/03 12:33:10;;;;;;;7.47;2.05;;;10.80;99.90;;;;;;4966968;28;20167;-86
2023/02/03 12:36:10;;;;;;;6.63;2.00;;;10.70;99.90;;;;;;4978042;28;20346;-86
2023/02/03 12:39:24;;;;;;;9.52;2.28;;;10.60;99.90;;;;;;4976242;28;20616;-86
2023/02/03 12:41:55;;;;;;;;;;;10.60;99.90;;;;;;4992712;28;20050;-85
2023/02/03 12:45:02;;;;;;;5.60;1.77;;;10.50;99.90;;;;;;5014119;28;19906;-84
2023/02/03 12:48:18;;;;;;;10.35;2.58;;;10.50;99.90;;;;;;4985273;28;20041;-85
2023/02/03 12:51:08;;;;;;;8.15;2.38;;;10.40;99.90;;;;;;4962721;28;20060;-88
2023/02/03 12:53:56;;;;;;;10.80;2.75;;;10.30;99.90;;;;;;4979065;28;20077;-90
2023/02/03 12:56:49;;;;;;;10.43;2.67;;;10.10;99.90;;;;;;4995720;28;20033;-87
2023/02/03 12:59:25;;;;;;;11.07;2.35;;;10.10;99.90;;;;;;4982862;28;20536;-87
2023/02/03 13:05:50;;;;;;;9.93;3.03;;;9.90;99.90;;;;;;4992135;28;20422;-90
2023/02/03 13:08:58;;;;;;;8.25;1.90;;;9.70;99.90;;;;;;5027787;28;20033;-87
2023/02/03 13:12:15;;;;;;;12.20;2.70;;;9.70;99.90;;;;;;5015371;28;20449;-88
2023/02/03 13:15:30;;;;;;;11.45;2.50;;;9.60;99.90;;;;;;5002355;28;20046;-89
2023/02/03 13:18:55;;;;;;;12.68;3.00;;;9.70;99.90;;;;;;5022965;28;20128;-89
2023/02/03 13:21:32;;;;;;;8.32;2.38;;;9.60;99.90;;;;;;5002841;28;20064;-88
2023/02/03 13:24:37;;;;;;;12.77;3.03;;;9.70;99.90;;;;;;5014198;28;20218;-87
2023/02/03 13:28:04;;;;;;;11.15;3.33;;;9.70;99.90;;;;;;5009035;28;20489;-87
2023/02/03 13:31:08;;;;;;;12.02;2.85;;;9.70;99.90;;;;;;5031154;28;20079;-89
2023/02/03 13:34:48;;;;;;;12.60;3.58;;;9.70;99.90;;;;;;5020953;28;20034;-88
2023/02/03 13:38:03;;;;;;;16.05;3.85;;;9.70;99.90;;;;;;4961938;28;20564;-88
2023/02/03 13:41:19;;;;;;;;;;;;;;;;;;;;;
2023/02/03 13:43:56;;;;;;;11.82;3.70;;;9.80;99.90;;;;;;5025210;28;20044;-88
2023/02/03 13:46:40;;;;;;;9.80;2.90;;;9.80;99.90;;;;;;5038547;28;20048;-90
2023/02/03 13:49:50;;;;;;;9.82;3.50;;;9.90;99.90;;;;;;5051263;28;20036;-89
2023/02/03 13:53:23;;;;;;;9.88;3.60;;;9.90;99.90;;;;;;5043236;28;20033;-90
2023/02/03 13:56:17;;;;;;;15.55;3.80;;;9.90;99.90;;;;;;4937662;28;20046;-90
2023/02/03 13:59:31;;;;;;;11.00;3.47;;;9.90;99.90;;;;;;4952562;28;20034;-89
2023/02/03 14:02:53;;;;;;;14.43;3.42;;;9.90;99.90;;;;;;4926936;29;20115;-89
2023/02/03 14:06:02;;;;;;;9.88;3.35;;;9.90;99.90;;;;;;4916793;29;20394;-88
2023/02/03 14:09:27;;;;;;;14.73;3.90;;;9.80;99.90;;;;;;4918029;29;20032;-90
2023/02/03 14:13:16;;;;;;;12.63;3.45;;;9.90;99.90;;;;;;4933394;28;20027;-90
2023/02/03 14:16:39;;;;;;;13.43;2.85;;;9.90;99.90;;;;;;4904601;29;20202;-89
2023/02/03 14:19:56;;;;;;;13.73;3.10;;;9.90;99.90;;;;;;4951382;28;20062;-88
2023/02/03 14:23:00;;;;;;;15.90;3.50;;;9.90;99.90;;;;;;4980959;28;20055;-90
2023/02/03 14:26:14;;;;;;;13.40;3.25;;;9.90;99.90;;;;;;4974839;28;20031;-89
2023/02/03 14:28:58;;;;;;;10.25;2.40;;;9.90;99.90;;;;;;4958969;28;20034;-89
2023/02/03 14:32:24;;;;;;;;;;;;;;;;;;;;;
2023/02/03 14:35:46;;;;;;;14.85;3.30;;;9.90;99.90;;;;;;4978279;28;20042;-88
2023/02/03 14:38:40;;;;;;;18.52;4.75;;;9.90;99.90;;;;;;4977553;28;20116;-88
2023/02/03 14:41:55;;;;;;;19.50;3.45;;;9.90;99.90;;;;;;4985261;28;20019;-91
2023/02/03 14:45:32;;;;;;;22.90;4.82;;;9.90;99.90;;;;;;4989826;28;20062;-88
2023/02/03 14:48:38;;;;;;;14.50;3.55;;;9.90;99.90;;;;;;4939005;29;20059;-88
2023/02/03 14:51:42;;;;;;;14.23;3.92;;;9.90;99.90;;;;;;4987205;28;20395;-88
2023/02/03 14:55:24;;;;;;;21.30;4.28;;;9.90;99.90;;;;;;5030830;28;20410;-88
2023/02/03 14:58:51;;;;;;;21.02;3.30;;;9.90;99.90;;;;;;5057812;28;20032;-88
2023/02/03 15:01:59;;;;;;;19.80;3.65;;;9.90;99.90;;;;;;5057502;28;20033;-89
2023/02/03 15:05:13;;;;;;;16.83;3.70;;;9.90;99.90;;;;;;5056556;28;20025;-87
2023/02/03 15:08:21;;;;;;;24.85;4.30;;;9.80;99.90;;;;;;5057804;28;20370;-90
2023/02/03 15:11:46;;;;;;;19.75;3.17;;;9.80;99.90;;;;;;5054284;28;20038;-89
2023/02/03 15:14:33;;;;;;;16.52;3.25;;;9.80;99.90;;;;;;5010882;28;20480;-88
2023/02/03 15:17:38;;;;;;;15.15;3.03;;;9.70;99.90;;;;;;5008263;28;20091;-87
2023/02/03 15:20:41;;;;;;;17.92;3.90;;;9.70;99.90;;;;;;4968536;28;20035;-89
2023/02/03 15:23:49;;;;;;;14.45;3.20;;;9.70;99.90;;;;;;4949509;28;20389;-88
2023/02/03 15:26:22;;;;;;;16.67;3.50;;;9.60;99.90;;;;;;4949454;28;20531;-87
2023/02/03 15:29:19;;;;;;;12.07;2.88;;;9.60;99.90;;;;;;4984984;28;20065;-86
2023/02/03 15:35:22;;;;;;;15.63;2.80;;;9.60;99.90;;;;;;5013592;28;20354;-88
2023/02/03 15:38:05;;;;;;;21.17;3.53;;;9.50;99.90;;;;;;4981602;28;20100;-88
2023/02/03 15:40:58;;;;;;;14.30;3.30;;;9.50;99.90;;;;;;4994785;28;20397;-88
2023/02/03 15:43:45;;;;;;;11.95;3.00;;;9.50;99.90;;;;;;5019280;28;20083;-89
2023/02/03 15:46:52;;;;;;;16.08;4.00;;;9.50;99.90;;;;;;5014320;28;20037;-87
2023/02/03 15:49:28;;;;;;;14.38;3.20;;;9.50;99.90;;;;;;5015875;28;20428;-87
2023/02/03 15:52:36;;;;;;;12.65;2.63;;;9.40;99.90;;;;;;5011530;28;20473;-87